sensor_id;sensor_type;location;lat;lon;timestamp;temperature;humidity
3075;DHT22;1548;51.716;8.748;2022-07-23T00:00:09;17.40;78.50
3075;DHT22;1548;51.716;8.748;2022-07-23T00:02:35;17.40;78.60
3075;DHT22;1548;51.716;8.748;2022-07-23T00:05:01;17.40;78.50
3075;DHT22;1548;51.716;8.748;2022-07-23T00:07:27;17.40;78.50
3075;DHT22;1548;51.716;8.748;2022-07-23T00:09:53;17.40;78.50
3075;DHT22;1548;51.716;8.748;2022-07-23T00:12:18;17.40;78.60
3075;DHT22;1548;51.716;8.748;2022-07-23T00:14:44;17.40;78.50
3075;DHT22;1548;51.716;8.748;2022-07-23T00:17:10;17.30;78.50
3075;DHT22;1548;51.716;8.748;2022-07-23T00:19:35;17.30;78.60
3075;DHT22;1548;51.716;8.748;2022-07-23T00:22:01;17.40;78.60
3075;DHT22;1548;51.716;8.748;2022-07-23T00:24:26;17.40;78.60
3075;DHT22;1548;51.716;8.748;2022-07-23T00:26:52;17.30;78.50
3075;DHT22;1548;51.716;8.748;2022-07-23T00:29:18;17.20;78.50
3075;DHT22;1548;51.716;8.748;2022-07-23T00:31:43;17.20;78.50
3075;DHT22;1548;51.716;8.748;2022-07-23T00:34:09;17.20;78.70
3075;DHT22;1548;51.716;8.748;2022-07-23T00:36:34;17.20;78.60
3075;DHT22;1548;51.716;8.748;2022-07-23T00:39:00;17.20;78.50
3075;DHT22;1548;51.716;8.748;2022-07-23T00:41:26;17.20;78.50
3075;DHT22;1548;51.716;8.748;2022-07-23T00:43:51;17.30;78.60
3075;DHT22;1548;51.716;8.748;2022-07-23T00:46:21;17.30;78.70
3075;DHT22;1548;51.716;8.748;2022-07-23T00:48:47;17.30;78.60
3075;DHT22;1548;51.716;8.748;2022-07-23T00:51:14;17.30;78.60
3075;DHT22;1548;51.716;8.748;2022-07-23T00:53:40;17.40;78.60
3075;DHT22;1548;51.716;8.748;2022-07-23T00:56:06;17.30;78.60
3075;DHT22;1548;51.716;8.748;2022-07-23T00:58:34;17.40;78.60
3075;DHT22;1548;51.716;8.748;2022-07-23T01:01:00;17.40;78.60
3075;DHT22;1548;51.716;8.748;2022-07-23T01:03:26;17.40;78.60
3075;DHT22;1548;51.716;8.748;2022-07-23T01:05:51;17.30;78.70
3075;DHT22;1548;51.716;8.748;2022-07-23T01:08:18;17.30;78.60
3075;DHT22;1548;51.716;8.748;2022-07-23T01:10:43;17.30;78.60
3075;DHT22;1548;51.716;8.748;2022-07-23T01:13:09;17.20;78.70
3075;DHT22;1548;51.716;8.748;2022-07-23T01:15:37;17.20;78.70
3075;DHT22;1548;51.716;8.748;2022-07-23T01:18:04;17.20;78.70
3075;DHT22;1548;51.716;8.748;2022-07-23T01:20:31;17.20;78.50
3075;DHT22;1548;51.716;8.748;2022-07-23T01:22:57;17.20;78.70
3075;DHT22;1548;51.716;8.748;2022-07-23T01:25:24;17.20;78.70
3075;DHT22;1548;51.716;8.748;2022-07-23T01:27:52;17.10;78.60
3075;DHT22;1548;51.716;8.748;2022-07-23T01:30:18;17.10;78.70
3075;DHT22;1548;51.716;8.748;2022-07-23T01:32:44;17.00;78.70
3075;DHT22;1548;51.716;8.748;2022-07-23T01:35:09;17.00;78.60
3075;DHT22;1548;51.716;8.748;2022-07-23T01:37:36;16.90;78.60
3075;DHT22;1548;51.716;8.748;2022-07-23T01:40:02;17.00;78.80
3075;DHT22;1548;51.716;8.748;2022-07-23T01:42:28;17.00;78.80
3075;DHT22;1548;51.716;8.748;2022-07-23T01:44:53;17.00;78.80
3075;DHT22;1548;51.716;8.748;2022-07-23T01:47:19;16.90;78.70
3075;DHT22;1548;51.716;8.748;2022-07-23T01:49:44;16.70;78.80
3075;DHT22;1548;51.716;8.748;2022-07-23T01:52:10;16.70;78.90
3075;DHT22;1548;51.716;8.748;2022-07-23T01:54:37;16.70;79.00
3075;DHT22;1548;51.716;8.748;2022-07-23T01:57:04;16.60;79.00
3075;DHT22;1548;51.716;8.748;2022-07-23T01:59:30;16.60;79.10
3075;DHT22;1548;51.716;8.748;2022-07-23T02:01:55;16.50;78.90
3075;DHT22;1548;51.716;8.748;2022-07-23T02:04:23;16.60;78.90
3075;DHT22;1548;51.716;8.748;2022-07-23T02:06:49;16.60;79.10
3075;DHT22;1548;51.716;8.748;2022-07-23T02:09:15;16.50;79.10
3075;DHT22;1548;51.716;8.748;2022-07-23T02:11:41;16.40;79.10
3075;DHT22;1548;51.716;8.748;2022-07-23T02:14:06;16.40;79.00
3075;DHT22;1548;51.716;8.748;2022-07-23T02:16:32;16.40;79.20
3075;DHT22;1548;51.716;8.748;2022-07-23T02:18:58;16.40;79.20
3075;DHT22;1548;51.716;8.748;2022-07-23T02:21:24;16.40;79.10
3075;DHT22;1548;51.716;8.748;2022-07-23T02:23:49;16.40;79.10
3075;DHT22;1548;51.716;8.748;2022-07-23T02:26:15;16.30;79.20
3075;DHT22;1548;51.716;8.748;2022-07-23T02:28:41;16.20;79.20
3075;DHT22;1548;51.716;8.748;2022-07-23T02:31:06;16.20;79.20
3075;DHT22;1548;51.716;8.748;2022-07-23T02:33:32;16.20;79.30
3075;DHT22;1548;51.716;8.748;2022-07-23T02:35:59;16.20;79.20
3075;DHT22;1548;51.716;8.748;2022-07-23T02:38:25;16.20;79.20
3075;DHT22;1548;51.716;8.748;2022-07-23T02:40:50;16.30;79.30
3075;DHT22;1548;51.716;8.748;2022-07-23T02:43:16;16.20;79.20
3075;DHT22;1548;51.716;8.748;2022-07-23T02:45:41;16.20;79.30
3075;DHT22;1548;51.716;8.748;2022-07-23T02:48:07;16.10;79.40
3075;DHT22;1548;51.716;8.748;2022-07-23T02:50:33;16.10;79.30
3075;DHT22;1548;51.716;8.748;2022-07-23T02:52:58;16.10;79.30
3075;DHT22;1548;51.716;8.748;2022-07-23T02:55:24;16.00;79.40
3075;DHT22;1548;51.716;8.748;2022-07-23T02:57:50;16.00;79.40
3075;DHT22;1548;51.716;8.748;2022-07-23T03:00:16;16.00;79.40
3075;DHT22;1548;51.716;8.748;2022-07-23T03:02:41;15.90;79.30
3075;DHT22;1548;51.716;8.748;2022-07-23T03:05:07;15.90;79.30
3075;DHT22;1548;51.716;8.748;2022-07-23T03:07:33;15.90;79.30
3075;DHT22;1548;51.716;8.748;2022-07-23T03:09:58;15.90;79.30
3075;DHT22;1548;51.716;8.748;2022-07-23T03:12:24;16.00;79.30
3075;DHT22;1548;51.716;8.748;2022-07-23T03:14:50;16.00;79.40
3075;DHT22;1548;51.716;8.748;2022-07-23T03:17:15;16.00;79.40
3075;DHT22;1548;51.716;8.748;2022-07-23T03:19:41;16.00;79.50
3075;DHT22;1548;51.716;8.748;2022-07-23T03:22:07;16.00;79.40
3075;DHT22;1548;51.716;8.748;2022-07-23T03:24:32;16.00;79.60
3075;DHT22;1548;51.716;8.748;2022-07-23T03:27:16;16.00;79.60
3075;DHT22;1548;51.716;8.748;2022-07-23T03:29:42;16.00;79.60
3075;DHT22;1548;51.716;8.748;2022-07-23T03:32:08;15.90;79.60
3075;DHT22;1548;51.716;8.748;2022-07-23T03:34:33;15.90;79.50
3075;DHT22;1548;51.716;8.748;2022-07-23T03:36:59;15.90;79.60
3075;DHT22;1548;51.716;8.748;2022-07-23T03:39:24;15.80;79.60
3075;DHT22;1548;51.716;8.748;2022-07-23T03:41:50;15.80;79.60
3075;DHT22;1548;51.716;8.748;2022-07-23T03:44:16;15.80;79.60
3075;DHT22;1548;51.716;8.748;2022-07-23T03:46:41;15.70;79.50
3075;DHT22;1548;51.716;8.748;2022-07-23T03:49:07;15.80;79.60
3075;DHT22;1548;51.716;8.748;2022-07-23T03:51:32;15.80;79.60
3075;DHT22;1548;51.716;8.748;2022-07-23T03:53:58;15.80;79.60
3075;DHT22;1548;51.716;8.748;2022-07-23T03:56:24;15.80;79.70
3075;DHT22;1548;51.716;8.748;2022-07-23T03:58:49;15.70;79.60
3075;DHT22;1548;51.716;8.748;2022-07-23T04:01:15;15.70;79.70
3075;DHT22;1548;51.716;8.748;2022-07-23T04:03:41;15.60;79.70
3075;DHT22;1548;51.716;8.748;2022-07-23T04:06:06;15.60;79.80
3075;DHT22;1548;51.716;8.748;2022-07-23T04:08:32;15.60;79.80
3075;DHT22;1548;51.716;8.748;2022-07-23T04:10:58;15.60;79.70
3075;DHT22;1548;51.716;8.748;2022-07-23T04:13:23;15.60;79.80
3075;DHT22;1548;51.716;8.748;2022-07-23T04:15:49;15.60;79.80
3075;DHT22;1548;51.716;8.748;2022-07-23T04:18:16;15.50;79.80
3075;DHT22;1548;51.716;8.748;2022-07-23T04:20:46;15.50;79.80
3075;DHT22;1548;51.716;8.748;2022-07-23T04:23:11;15.50;79.80
3075;DHT22;1548;51.716;8.748;2022-07-23T04:25:38;15.60;79.80
3075;DHT22;1548;51.716;8.748;2022-07-23T04:28:03;15.60;79.80
3075;DHT22;1548;51.716;8.748;2022-07-23T04:30:29;15.50;79.80
3075;DHT22;1548;51.716;8.748;2022-07-23T04:32:55;15.50;79.80
3075;DHT22;1548;51.716;8.748;2022-07-23T04:35:20;15.60;79.80
3075;DHT22;1548;51.716;8.748;2022-07-23T04:37:46;15.60;79.80
3075;DHT22;1548;51.716;8.748;2022-07-23T04:40:12;15.70;79.70
3075;DHT22;1548;51.716;8.748;2022-07-23T04:42:38;15.70;79.80
3075;DHT22;1548;51.716;8.748;2022-07-23T04:45:05;15.80;79.60
3075;DHT22;1548;51.716;8.748;2022-07-23T04:47:30;15.90;79.80
3075;DHT22;1548;51.716;8.748;2022-07-23T04:49:56;16.00;79.70
3075;DHT22;1548;51.716;8.748;2022-07-23T04:52:23;16.00;79.80
3075;DHT22;1548;51.716;8.748;2022-07-23T04:54:48;15.90;79.80
3075;DHT22;1548;51.716;8.748;2022-07-23T04:57:14;15.90;79.80
3075;DHT22;1548;51.716;8.748;2022-07-23T04:59:39;15.90;79.70
3075;DHT22;1548;51.716;8.748;2022-07-23T05:02:05;16.00;79.70
3075;DHT22;1548;51.716;8.748;2022-07-23T05:04:30;16.10;79.80
3075;DHT22;1548;51.716;8.748;2022-07-23T05:06:57;16.20;79.80
3075;DHT22;1548;51.716;8.748;2022-07-23T05:09:23;16.20;79.80
3075;DHT22;1548;51.716;8.748;2022-07-23T05:11:48;16.20;79.80
3075;DHT22;1548;51.716;8.748;2022-07-23T05:14:14;16.10;80.00
3075;DHT22;1548;51.716;8.748;2022-07-23T05:16:39;16.00;79.80
3075;DHT22;1548;51.716;8.748;2022-07-23T05:19:05;16.20;79.70
3075;DHT22;1548;51.716;8.748;2022-07-23T05:21:31;16.40;79.80
3075;DHT22;1548;51.716;8.748;2022-07-23T05:23:56;16.30;79.90
3075;DHT22;1548;51.716;8.748;2022-07-23T05:26:22;16.30;79.80
3075;DHT22;1548;51.716;8.748;2022-07-23T05:28:48;16.50;79.80
3075;DHT22;1548;51.716;8.748;2022-07-23T05:31:13;16.50;79.70
3075;DHT22;1548;51.716;8.748;2022-07-23T05:33:39;16.60;79.70
3075;DHT22;1548;51.716;8.748;2022-07-23T05:36:05;16.70;79.80
3075;DHT22;1548;51.716;8.748;2022-07-23T05:38:32;16.60;79.90
3075;DHT22;1548;51.716;8.748;2022-07-23T05:40:57;16.60;79.70
3075;DHT22;1548;51.716;8.748;2022-07-23T05:43:23;16.70;79.70
3075;DHT22;1548;51.716;8.748;2022-07-23T05:45:49;16.80;79.90
3075;DHT22;1548;51.716;8.748;2022-07-23T05:48:14;16.80;79.70
3075;DHT22;1548;51.716;8.748;2022-07-23T05:50:40;16.90;79.70
3075;DHT22;1548;51.716;8.748;2022-07-23T05:53:05;17.00;79.50
3075;DHT22;1548;51.716;8.748;2022-07-23T05:55:31;17.10;79.50
3075;DHT22;1548;51.716;8.748;2022-07-23T05:57:58;17.20;79.80
3075;DHT22;1548;51.716;8.748;2022-07-23T06:00:24;17.10;79.50
3075;DHT22;1548;51.716;8.748;2022-07-23T06:02:50;17.00;79.90
3075;DHT22;1548;51.716;8.748;2022-07-23T06:05:16;17.00;79.50
3075;DHT22;1548;51.716;8.748;2022-07-23T06:07:41;17.10;79.50
3075;DHT22;1548;51.716;8.748;2022-07-23T06:10:08;17.10;79.70
3075;DHT22;1548;51.716;8.748;2022-07-23T06:12:33;17.10;79.60
3075;DHT22;1548;51.716;8.748;2022-07-23T06:14:59;17.10;79.40
3075;DHT22;1548;51.716;8.748;2022-07-23T06:17:25;16.90;79.50
3075;DHT22;1548;51.716;8.748;2022-07-23T06:19:50;16.90;79.50
3075;DHT22;1548;51.716;8.748;2022-07-23T06:22:16;17.00;79.50
3075;DHT22;1548;51.716;8.748;2022-07-23T06:24:41;17.10;79.50
3075;DHT22;1548;51.716;8.748;2022-07-23T06:27:07;17.10;79.30
3075;DHT22;1548;51.716;8.748;2022-07-23T06:29:33;17.30;79.50
3075;DHT22;1548;51.716;8.748;2022-07-23T06:31:58;17.30;79.70
3075;DHT22;1548;51.716;8.748;2022-07-23T06:34:24;17.20;79.50
3075;DHT22;1548;51.716;8.748;2022-07-23T06:36:50;17.20;79.40
3075;DHT22;1548;51.716;8.748;2022-07-23T06:39:15;17.10;79.40
3075;DHT22;1548;51.716;8.748;2022-07-23T06:41:41;17.10;79.20
3075;DHT22;1548;51.716;8.748;2022-07-23T06:44:07;17.10;79.30
3075;DHT22;1548;51.716;8.748;2022-07-23T06:46:33;17.20;79.20
3075;DHT22;1548;51.716;8.748;2022-07-23T06:48:59;17.20;79.50
3075;DHT22;1548;51.716;8.748;2022-07-23T06:51:25;17.30;79.50
3075;DHT22;1548;51.716;8.748;2022-07-23T06:53:50;17.20;79.50
3075;DHT22;1548;51.716;8.748;2022-07-23T06:56:16;17.10;79.40
3075;DHT22;1548;51.716;8.748;2022-07-23T06:58:41;17.20;79.40
3075;DHT22;1548;51.716;8.748;2022-07-23T07:01:07;17.20;79.30
3075;DHT22;1548;51.716;8.748;2022-07-23T07:03:33;17.30;79.30
3075;DHT22;1548;51.716;8.748;2022-07-23T07:05:58;17.60;79.20
3075;DHT22;1548;51.716;8.748;2022-07-23T07:08:24;17.80;79.30
3075;DHT22;1548;51.716;8.748;2022-07-23T07:10:50;18.00;79.30
3075;DHT22;1548;51.716;8.748;2022-07-23T07:13:15;18.00;79.10
3075;DHT22;1548;51.716;8.748;2022-07-23T07:15:41;18.00;78.80
3075;DHT22;1548;51.716;8.748;2022-07-23T07:18:07;17.80;78.60
3075;DHT22;1548;51.716;8.748;2022-07-23T07:20:33;17.80;78.80
3075;DHT22;1548;51.716;8.748;2022-07-23T07:22:58;17.90;78.80
3075;DHT22;1548;51.716;8.748;2022-07-23T07:25:24;18.00;78.80
3075;DHT22;1548;51.716;8.748;2022-07-23T07:27:49;18.20;78.80
3075;DHT22;1548;51.716;8.748;2022-07-23T07:30:15;18.30;79.00
3075;DHT22;1548;51.716;8.748;2022-07-23T07:32:41;18.40;78.40
3075;DHT22;1548;51.716;8.748;2022-07-23T07:35:08;18.50;78.90
3075;DHT22;1548;51.716;8.748;2022-07-23T07:37:34;18.40;78.20
3075;DHT22;1548;51.716;8.748;2022-07-23T07:40:00;18.40;78.10
3075;DHT22;1548;51.716;8.748;2022-07-23T07:42:26;18.30;77.70
3075;DHT22;1548;51.716;8.748;2022-07-23T07:44:52;18.20;77.80
3075;DHT22;1548;51.716;8.748;2022-07-23T07:47:17;18.30;78.40
3075;DHT22;1548;51.716;8.748;2022-07-23T07:49:43;18.20;78.10
3075;DHT22;1548;51.716;8.748;2022-07-23T07:52:09;18.40;77.70
3075;DHT22;1548;51.716;8.748;2022-07-23T07:54:35;18.40;77.20
3075;DHT22;1548;51.716;8.748;2022-07-23T07:57:01;18.60;76.90
3075;DHT22;1548;51.716;8.748;2022-07-23T07:59:27;18.50;77.10
3075;DHT22;1548;51.716;8.748;2022-07-23T08:01:52;18.50;75.70
3075;DHT22;1548;51.716;8.748;2022-07-23T08:04:18;18.60;76.60
3075;DHT22;1548;51.716;8.748;2022-07-23T08:06:44;18.70;76.20
3075;DHT22;1548;51.716;8.748;2022-07-23T08:09:09;18.90;76.20
3075;DHT22;1548;51.716;8.748;2022-07-23T08:11:35;19.10;75.80
3075;DHT22;1548;51.716;8.748;2022-07-23T08:14:01;19.10;74.70
3075;DHT22;1548;51.716;8.748;2022-07-23T08:16:27;19.20;75.20
3075;DHT22;1548;51.716;8.748;2022-07-23T08:18:52;19.40;75.40
3075;DHT22;1548;51.716;8.748;2022-07-23T08:21:18;19.50;74.70
3075;DHT22;1548;51.716;8.748;2022-07-23T08:23:44;19.50;74.50
3075;DHT22;1548;51.716;8.748;2022-07-23T08:26:10;19.50;74.10
3075;DHT22;1548;51.716;8.748;2022-07-23T08:28:35;19.40;74.40
3075;DHT22;1548;51.716;8.748;2022-07-23T08:31:01;19.50;74.50
3075;DHT22;1548;51.716;8.748;2022-07-23T08:33:27;19.60;75.00
3075;DHT22;1548;51.716;8.748;2022-07-23T08:35:53;19.40;75.30
3075;DHT22;1548;51.716;8.748;2022-07-23T08:38:20;19.60;75.50
3075;DHT22;1548;51.716;8.748;2022-07-23T08:40:52;19.70;73.80
3075;DHT22;1548;51.716;8.748;2022-07-23T08:43:21;19.90;73.50
3075;DHT22;1548;51.716;8.748;2022-07-23T08:45:49;19.90;73.20
3075;DHT22;1548;51.716;8.748;2022-07-23T08:48:20;19.90;72.40
3075;DHT22;1548;51.716;8.748;2022-07-23T08:50:49;19.80;72.90
3075;DHT22;1548;51.716;8.748;2022-07-23T08:53:16;19.90;72.90
3075;DHT22;1548;51.716;8.748;2022-07-23T08:55:46;20.10;72.80
3075;DHT22;1548;51.716;8.748;2022-07-23T08:58:12;20.10;72.70
3075;DHT22;1548;51.716;8.748;2022-07-23T09:00:38;20.20;73.10
3075;DHT22;1548;51.716;8.748;2022-07-23T09:03:04;20.20;72.30
3075;DHT22;1548;51.716;8.748;2022-07-23T09:05:30;19.80;71.10
3075;DHT22;1548;51.716;8.748;2022-07-23T09:08:07;19.70;71.30
3075;DHT22;1548;51.716;8.748;2022-07-23T09:18:49;20.10;71.50
3075;DHT22;1548;51.716;8.748;2022-07-23T09:21:22;20.10;71.10
3075;DHT22;1548;51.716;8.748;2022-07-23T09:26:22;20.20;71.40
3075;DHT22;1548;51.716;8.748;2022-07-23T09:29:01;20.00;71.40
3075;DHT22;1548;51.716;8.748;2022-07-23T09:31:33;19.70;72.20
3075;DHT22;1548;51.716;8.748;2022-07-23T09:34:11;20.10;72.10
3075;DHT22;1548;51.716;8.748;2022-07-23T09:36:38;20.20;71.60
3075;DHT22;1548;51.716;8.748;2022-07-23T09:39:04;20.40;71.50
3075;DHT22;1548;51.716;8.748;2022-07-23T09:41:39;20.60;71.10
3075;DHT22;1548;51.716;8.748;2022-07-23T09:44:13;20.90;70.60
3075;DHT22;1548;51.716;8.748;2022-07-23T09:46:40;21.10;69.80
3075;DHT22;1548;51.716;8.748;2022-07-23T09:49:17;21.20;69.90
3075;DHT22;1548;51.716;8.748;2022-07-23T09:52:02;21.20;69.20
3075;DHT22;1548;51.716;8.748;2022-07-23T09:54:31;21.40;69.00
3075;DHT22;1548;51.716;8.748;2022-07-23T09:59:32;20.20;71.00
3075;DHT22;1548;51.716;8.748;2022-07-23T10:02:00;20.40;70.90
3075;DHT22;1548;51.716;8.748;2022-07-23T10:04:30;20.50;70.70
3075;DHT22;1548;51.716;8.748;2022-07-23T10:06:59;20.50;70.80
3075;DHT22;1548;51.716;8.748;2022-07-23T10:09:40;20.80;70.30
3075;DHT22;1548;51.716;8.748;2022-07-23T10:12:11;20.80;70.00
3075;DHT22;1548;51.716;8.748;2022-07-23T10:14:40;20.70;69.70
3075;DHT22;1548;51.716;8.748;2022-07-23T10:17:07;20.60;70.20
3075;DHT22;1548;51.716;8.748;2022-07-23T10:19:34;20.70;70.10
3075;DHT22;1548;51.716;8.748;2022-07-23T10:22:13;21.00;69.70
3075;DHT22;1548;51.716;8.748;2022-07-23T10:30:03;21.10;68.80
3075;DHT22;1548;51.716;8.748;2022-07-23T10:35:18;20.80;69.80
3075;DHT22;1548;51.716;8.748;2022-07-23T10:37:54;20.90;69.80
3075;DHT22;1548;51.716;8.748;2022-07-23T10:40:22;20.90;69.70
3075;DHT22;1548;51.716;8.748;2022-07-23T10:42:51;21.20;69.70
3075;DHT22;1548;51.716;8.748;2022-07-23T10:45:32;21.40;68.80
3075;DHT22;1548;51.716;8.748;2022-07-23T10:48:24;21.40;68.70
3075;DHT22;1548;51.716;8.748;2022-07-23T10:51:12;21.00;68.90
3075;DHT22;1548;51.716;8.748;2022-07-23T10:53:58;21.20;69.10
3075;DHT22;1548;51.716;8.748;2022-07-23T10:57:16;21.00;69.10
3075;DHT22;1548;51.716;8.748;2022-07-23T11:02:28;21.10;69.00
3075;DHT22;1548;51.716;8.748;2022-07-23T11:04:56;21.30;68.80
3075;DHT22;1548;51.716;8.748;2022-07-23T11:07:24;21.40;68.60
3075;DHT22;1548;51.716;8.748;2022-07-23T11:09:50;21.10;69.20
3075;DHT22;1548;51.716;8.748;2022-07-23T11:20:20;21.00;68.80
3075;DHT22;1548;51.716;8.748;2022-07-23T11:25:13;21.20;69.10
3075;DHT22;1548;51.716;8.748;2022-07-23T11:27:43;21.40;68.60
3075;DHT22;1548;51.716;8.748;2022-07-23T11:30:37;21.70;68.60
3075;DHT22;1548;51.716;8.748;2022-07-23T11:33:15;21.90;68.40
3075;DHT22;1548;51.716;8.748;2022-07-23T11:35:50;21.90;68.40
3075;DHT22;1548;51.716;8.748;2022-07-23T11:38:24;22.10;67.80
3075;DHT22;1548;51.716;8.748;2022-07-23T11:40:55;22.10;67.10
3075;DHT22;1548;51.716;8.748;2022-07-23T11:43:23;21.90;67.10
3075;DHT22;1548;51.716;8.748;2022-07-23T11:45:54;21.90;67.80
3075;DHT22;1548;51.716;8.748;2022-07-23T11:48:27;21.70;68.00
3075;DHT22;1548;51.716;8.748;2022-07-23T11:50:55;21.40;68.20
3075;DHT22;1548;51.716;8.748;2022-07-23T11:53:29;21.50;68.70
3075;DHT22;1548;51.716;8.748;2022-07-23T11:56:04;21.70;68.20
3075;DHT22;1548;51.716;8.748;2022-07-23T11:58:30;21.50;68.50
3075;DHT22;1548;51.716;8.748;2022-07-23T12:00:55;21.50;69.00
3075;DHT22;1548;51.716;8.748;2022-07-23T12:03:21;21.30;68.90
3075;DHT22;1548;51.716;8.748;2022-07-23T12:05:47;21.30;69.00
3075;DHT22;1548;51.716;8.748;2022-07-23T12:08:12;21.50;69.00
3075;DHT22;1548;51.716;8.748;2022-07-23T12:10:41;21.50;68.70
3075;DHT22;1548;51.716;8.748;2022-07-23T12:13:15;21.60;68.70
3075;DHT22;1548;51.716;8.748;2022-07-23T12:15:43;21.80;68.10
3075;DHT22;1548;51.716;8.748;2022-07-23T12:18:11;21.60;67.10
3075;DHT22;1548;51.716;8.748;2022-07-23T12:20:38;21.60;67.80
3075;DHT22;1548;51.716;8.748;2022-07-23T12:23:06;21.50;67.70
3075;DHT22;1548;51.716;8.748;2022-07-23T12:25:34;21.60;67.70
3075;DHT22;1548;51.716;8.748;2022-07-23T12:30:49;21.60;67.40
3075;DHT22;1548;51.716;8.748;2022-07-23T12:33:37;21.80;67.60
3075;DHT22;1548;51.716;8.748;2022-07-23T12:36:06;22.00;67.40
3075;DHT22;1548;51.716;8.748;2022-07-23T12:38:42;22.10;67.10
3075;DHT22;1548;51.716;8.748;2022-07-23T12:41:08;22.30;67.40
3075;DHT22;1548;51.716;8.748;2022-07-23T12:43:38;22.20;67.00
3075;DHT22;1548;51.716;8.748;2022-07-23T12:46:21;22.30;66.30
3075;DHT22;1548;51.716;8.748;2022-07-23T12:51:16;22.40;66.80
3075;DHT22;1548;51.716;8.748;2022-07-23T12:53:44;22.60;66.80
3075;DHT22;1548;51.716;8.748;2022-07-23T12:56:15;22.80;65.50
3075;DHT22;1548;51.716;8.748;2022-07-23T13:01:41;22.60;66.00
3075;DHT22;1548;51.716;8.748;2022-07-23T13:04:13;22.80;65.80
3075;DHT22;1548;51.716;8.748;2022-07-23T13:06:41;22.80;65.80
3075;DHT22;1548;51.716;8.748;2022-07-23T13:09:10;22.80;64.70
3075;DHT22;1548;51.716;8.748;2022-07-23T13:11:36;22.90;64.40
3075;DHT22;1548;51.716;8.748;2022-07-23T13:14:02;22.90;64.60
3075;DHT22;1548;51.716;8.748;2022-07-23T13:16:29;23.00;64.10
3075;DHT22;1548;51.716;8.748;2022-07-23T13:18:55;23.00;63.80
3075;DHT22;1548;51.716;8.748;2022-07-23T13:21:22;22.90;63.80
3075;DHT22;1548;51.716;8.748;2022-07-23T13:23:48;22.80;63.60
3075;DHT22;1548;51.716;8.748;2022-07-23T13:26:13;22.90;64.10
3075;DHT22;1548;51.716;8.748;2022-07-23T13:28:39;22.80;64.30
3075;DHT22;1548;51.716;8.748;2022-07-23T13:31:05;22.80;64.10
3075;DHT22;1548;51.716;8.748;2022-07-23T13:33:31;22.90;64.30
3075;DHT22;1548;51.716;8.748;2022-07-23T13:35:56;23.40;63.70
3075;DHT22;1548;51.716;8.748;2022-07-23T13:38:22;23.70;63.80
3075;DHT22;1548;51.716;8.748;2022-07-23T13:40:50;24.00;62.70
3075;DHT22;1548;51.716;8.748;2022-07-23T13:43:18;23.80;62.40
3075;DHT22;1548;51.716;8.748;2022-07-23T13:45:44;23.70;62.90
3075;DHT22;1548;51.716;8.748;2022-07-23T13:48:12;23.80;62.00
3075;DHT22;1548;51.716;8.748;2022-07-23T13:50:39;23.80;61.90
3075;DHT22;1548;51.716;8.748;2022-07-23T13:53:10;23.60;62.70
3075;DHT22;1548;51.716;8.748;2022-07-23T13:55:38;23.60;62.30
3075;DHT22;1548;51.716;8.748;2022-07-23T13:58:05;23.50;63.20
3075;DHT22;1548;51.716;8.748;2022-07-23T14:00:33;23.60;62.70
3075;DHT22;1548;51.716;8.748;2022-07-23T14:03:00;23.60;62.80
3075;DHT22;1548;51.716;8.748;2022-07-23T14:05:26;23.30;62.50
3075;DHT22;1548;51.716;8.748;2022-07-23T14:07:52;23.30;63.00
3075;DHT22;1548;51.716;8.748;2022-07-23T14:10:19;23.40;62.50
3075;DHT22;1548;51.716;8.748;2022-07-23T14:12:46;23.60;62.90
3075;DHT22;1548;51.716;8.748;2022-07-23T14:15:13;23.80;62.40
3075;DHT22;1548;51.716;8.748;2022-07-23T14:17:41;24.00;62.60
3075;DHT22;1548;51.716;8.748;2022-07-23T14:20:08;24.00;60.80
3075;DHT22;1548;51.716;8.748;2022-07-23T14:22:34;23.60;62.00
3075;DHT22;1548;51.716;8.748;2022-07-23T14:25:00;23.70;61.70
3075;DHT22;1548;51.716;8.748;2022-07-23T14:27:27;23.70;61.70
3075;DHT22;1548;51.716;8.748;2022-07-23T14:29:53;24.00;61.50
3075;DHT22;1548;51.716;8.748;2022-07-23T14:32:19;24.10;60.80
3075;DHT22;1548;51.716;8.748;2022-07-23T14:34:44;24.30;59.80
3075;DHT22;1548;51.716;8.748;2022-07-23T14:37:10;24.40;60.20
3075;DHT22;1548;51.716;8.748;2022-07-23T14:39:40;24.40;59.70
3075;DHT22;1548;51.716;8.748;2022-07-23T14:42:07;24.10;60.80
3075;DHT22;1548;51.716;8.748;2022-07-23T14:44:33;23.80;60.70
3075;DHT22;1548;51.716;8.748;2022-07-23T14:46:59;23.70;60.70
3075;DHT22;1548;51.716;8.748;2022-07-23T14:49:26;23.60;60.90
3075;DHT22;1548;51.716;8.748;2022-07-23T14:51:52;23.80;61.20
3075;DHT22;1548;51.716;8.748;2022-07-23T14:54:18;24.00;60.40
3075;DHT22;1548;51.716;8.748;2022-07-23T14:56:45;24.00;59.80
3075;DHT22;1548;51.716;8.748;2022-07-23T14:59:13;24.40;59.70
3075;DHT22;1548;51.716;8.748;2022-07-23T15:01:40;24.10;58.80
3075;DHT22;1548;51.716;8.748;2022-07-23T15:04:06;24.10;59.00
3075;DHT22;1548;51.716;8.748;2022-07-23T15:06:32;24.00;58.60
3075;DHT22;1548;51.716;8.748;2022-07-23T15:08:58;23.90;59.00
3075;DHT22;1548;51.716;8.748;2022-07-23T15:11:26;24.10;59.40
3075;DHT22;1548;51.716;8.748;2022-07-23T15:13:52;24.20;59.30
3075;DHT22;1548;51.716;8.748;2022-07-23T15:16:18;24.20;59.80
3075;DHT22;1548;51.716;8.748;2022-07-23T15:18:43;24.60;59.10
3075;DHT22;1548;51.716;8.748;2022-07-23T15:21:09;24.80;57.80
3075;DHT22;1548;51.716;8.748;2022-07-23T15:23:35;25.00;57.50
3075;DHT22;1548;51.716;8.748;2022-07-23T15:26:03;25.30;56.90
3075;DHT22;1548;51.716;8.748;2022-07-23T15:28:29;25.50;55.90
3075;DHT22;1548;51.716;8.748;2022-07-23T15:30:54;25.80;55.80
3075;DHT22;1548;51.716;8.748;2022-07-23T15:33:20;26.10;55.10
3075;DHT22;1548;51.716;8.748;2022-07-23T15:35:46;26.20;54.40
3075;DHT22;1548;51.716;8.748;2022-07-23T15:38:11;26.10;54.30
3075;DHT22;1548;51.716;8.748;2022-07-23T15:40:38;25.80;54.90
3075;DHT22;1548;51.716;8.748;2022-07-23T15:43:03;25.90;55.60
3075;DHT22;1548;51.716;8.748;2022-07-23T15:45:32;26.10;54.70
3075;DHT22;1548;51.716;8.748;2022-07-23T15:47:58;26.30;54.60
3075;DHT22;1548;51.716;8.748;2022-07-23T15:50:24;26.40;54.60
3075;DHT22;1548;51.716;8.748;2022-07-23T15:52:50;26.40;54.20
3075;DHT22;1548;51.716;8.748;2022-07-23T15:55:16;26.70;53.80
3075;DHT22;1548;51.716;8.748;2022-07-23T15:57:41;26.90;53.80
3075;DHT22;1548;51.716;8.748;2022-07-23T16:00:08;27.00;53.60
3075;DHT22;1548;51.716;8.748;2022-07-23T16:02:34;26.70;54.30
3075;DHT22;1548;51.716;8.748;2022-07-23T16:05:00;26.70;53.90
3075;DHT22;1548;51.716;8.748;2022-07-23T16:07:26;26.90;53.60
3075;DHT22;1548;51.716;8.748;2022-07-23T16:09:52;26.50;53.80
3075;DHT22;1548;51.716;8.748;2022-07-23T16:12:18;26.40;54.60
3075;DHT22;1548;51.716;8.748;2022-07-23T16:14:43;26.50;53.90
3075;DHT22;1548;51.716;8.748;2022-07-23T16:17:09;27.00;53.20
3075;DHT22;1548;51.716;8.748;2022-07-23T16:19:36;27.20;52.20
3075;DHT22;1548;51.716;8.748;2022-07-23T16:22:01;27.10;52.20
3075;DHT22;1548;51.716;8.748;2022-07-23T16:24:27;26.90;53.10
3075;DHT22;1548;51.716;8.748;2022-07-23T16:26:53;26.70;53.50
3075;DHT22;1548;51.716;8.748;2022-07-23T16:29:19;26.50;54.30
3075;DHT22;1548;51.716;8.748;2022-07-23T16:31:44;26.60;53.80
3075;DHT22;1548;51.716;8.748;2022-07-23T16:34:10;26.50;54.30
3075;DHT22;1548;51.716;8.748;2022-07-23T16:36:36;26.70;54.40
3075;DHT22;1548;51.716;8.748;2022-07-23T16:39:03;26.80;53.60
3075;DHT22;1548;51.716;8.748;2022-07-23T16:41:29;26.80;53.40
3075;DHT22;1548;51.716;8.748;2022-07-23T16:43:55;26.50;54.60